• Join FlightAware (Why Join?)
  • Login
  • US Flag 
09:31PM EDT


 

Airport Tracker/Info


-or-


 

Live Flight TrackerFlight Track Log ✈ TAM3447 ✈ 12-Jun-2013 ✈ SBBE / BEL - SBBR / BSB

Flight Track Log - Related Links

Times and Time Zones

All times are in EDT time to prevent confusion due to time zone crossing. See the TAM3447 flight status page for this flight to view local times or setup timezone preferences in your user account.

Time Position Orientation Groundspeed Altitude Reporting Facility
EDT Latitude Longitude Course Direction KTS MPH feet Rate Location/Type
07:00PM -1.3670 -48.4640 44° Northeast 149 171 1,200  Level FlightAware
07:01PM -1.3590 -48.4480 63° Northeast 168 193 1,900 1,200 Climbing FlightAware
07:01PM -1.3920 -48.4290 150° Southeast 250 288 3,000 1,740 Climbing FlightAware
07:02PM -1.4150 -48.4310 185° South 264 304 4,000 2,880 Climbing FlightAware
07:02PM -1.4410 -48.4320 182° South 269 310 5,100 3,300 Climbing FlightAware
07:03PM -1.4760 -48.4330 182° South 280 322 6,500 3,000 Climbing FlightAware
07:03PM -1.5100 -48.4350 183° South 289 333 7,800 3,060 Climbing FlightAware
07:03PM -1.5480 -48.4370 183° South 292 336 9,300 2,580 Climbing FlightAware
07:04PM -1.6090 -48.4410 184° South 329 379 10,900 1,380 Climbing FlightAware
07:05PM -1.6730 -48.4450 184° South 345 397 11,400 2,460 Climbing FlightAware
07:06PM -1.7470 -48.4500 184° South 358 412 14,400 3,180 Climbing FlightAware
07:06PM -1.7470 -48.4500 184° South 361 415 15,600 840 Climbing FlightAware
07:07PM -1.8050 -48.4530 183° South 361 415 15,600  Level FlightAware
07:08PM -1.8730 -48.4570 183° South 361 415 15,600  Level FlightAware
07:08PM -1.9240 -48.4600 183° South 361 415 15,600  Level FlightAware
07:09PM -2.0090 -48.4640 183° South 361 415 15,600  Level FlightAware
07:10PM -2.0730 -48.4670 183° South 361 415 15,600 420 Level FlightAware
07:13PM -2.3303 -48.4570 178° South  Level Estimated
07:14PM -2.4353 -48.4529 178° South  Level Estimated
07:15PM -2.5403 -48.4487 178° South  Level Estimated
07:16PM -2.6453 -48.4446 178° South  Level Estimated
07:17PM -2.7503 -48.4405 178° South  Level Estimated
07:18PM -2.8552 -48.4364 178° South  Level Estimated
07:19PM -2.9602 -48.4323 178° South  Level Estimated
07:20PM -3.0652 -48.4282 178° South  Level Estimated
07:21PM -3.1702 -48.4241 178° South  Level Estimated
07:22PM -3.2752 -48.4200 178° South  Level Estimated
07:23PM -3.3802 -48.4159 178° South  Level Estimated
07:24PM -3.4852 -48.4118 178° South  Level Estimated
07:25PM -3.5903 -48.4076 178° South  Level Estimated
07:26PM -3.6953 -48.4035 178° South  Level Estimated
07:27PM -3.8003 -48.3994 178° South  Level Estimated
07:28PM -3.9053 -48.3953 178° South  Level Estimated
07:29PM -4.0103 -48.3912 178° South  Level Estimated
07:30PM -4.1153 -48.3871 178° South  Level Estimated
07:31PM -4.2203 -48.3829 178° South  Level Estimated
07:32PM -4.3253 -48.3788 178° South  Level Estimated
07:33PM -4.4303 -48.3747 178° South  Level Estimated
07:34PM -4.5353 -48.3706 178° South  Level Estimated
07:35PM -4.6403 -48.3665 178° South  Level Estimated
07:36PM -4.7453 -48.3624 178° South  Level Estimated
07:37PM -4.8502 -48.3582 178° South  Level Estimated
07:38PM -4.9552 -48.3541 178° South  Level Estimated
07:39PM -5.0602 -48.3500 178° South  Level Estimated
07:40PM -5.1652 -48.3458 178° South  Level Estimated
07:41PM -5.2702 -48.3417 178° South  Level Estimated
07:42PM -5.3752 -48.3376 178° South  Level Estimated
07:43PM -5.4802 -48.3334 178° South  Level Estimated
07:44PM -5.5852 -48.3293 178° South  Level Estimated
07:45PM -5.6845 -48.3254 178° South  Level Estimated
07:46PM -5.7838 -48.3215 178° South  Level Estimated
07:47PM -5.8830 -48.3176 178° South  Level Estimated
07:48PM -5.9823 -48.3137 178° South  Level Estimated
07:49PM -6.0815 -48.3097 178° South  Level Estimated
07:50PM -6.1807 -48.3058 178° South  Level Estimated
07:51PM -6.2800 -48.3019 178° South  Level Estimated
07:52PM -6.3793 -48.2980 178° South  Level Estimated
07:53PM -6.4785 -48.2941 178° South  Level Estimated
07:54PM -6.5778 -48.2901 178° South  Level Estimated
07:55PM -6.6770 -48.2862 178° South  Level Estimated
07:56PM -6.7762 -48.2823 178° South  Level Estimated
07:57PM -6.8755 -48.2784 178° South  Level Estimated
07:58PM -6.9748 -48.2744 178° South  Level Estimated
07:59PM -7.0740 -48.2705 178° South  Level Estimated
08:00PM -7.1733 -48.2666 178° South  Level Estimated
08:00PM -8.5410 -48.3820 178° South 430 495 38,100  Level FlightAware
08:01PM -7.2725 -48.2626 178° South  Level Estimated
08:01PM -8.6070 -48.3810 179° South 430 495 38,100  Level FlightAware
08:02PM -8.7130 -48.3800 179° South 437 503 39,000 600 Climbing FlightAware
08:02PM -8.7920 -48.3790 179° South 447 514 39,000  Level FlightAware
08:03PM -8.9200 -48.3770 179° South 449 517 39,000  Level FlightAware
08:04PM -9.0210 -48.3760 179° South 448 516 39,000  Level FlightAware
08:05PM -9.1250 -48.3740 179° South 446 513 39,000  Level FlightAware
08:06PM -9.2420 -48.3730 180° South 447 514 39,000  Level FlightAware
08:07PM -9.3130 -48.3720 179° South 447 514 39,000  Level FlightAware
08:07PM -9.4130 -48.3700 179° South 450 518 39,000  Level FlightAware
08:08PM -9.5010 -48.3690 179° South 449 517 39,000  Level FlightAware
08:09PM -9.5760 -48.3680 179° South 452 520 39,000  Level FlightAware
08:09PM -9.6640 -48.3670 179° South 445 512 39,000  Level FlightAware
08:10PM -9.6600 -48.3670 360° North 446 513 39,000  Level FlightAware
08:11PM -9.8370 -48.3640 179° South 446 513 39,000  Level FlightAware
08:11PM -9.8160 -48.3650 357° North 442 509 39,000  Level FlightAware
08:12PM -9.8190 -48.3640 162° South 441 507 39,000  Level FlightAware
08:13PM -9.7710 -48.3650 359° North 429 494 39,000  Level FlightAware
08:14PM -9.8350 -48.3640 179° South 429 494 39,000  Level FlightAware
08:15PM -9.9160 -48.3630 179° South 429 494 39,000  Level FlightAware
08:15PM -10.0100 -48.3610 179° South 429 494 39,000  Level FlightAware
08:16PM -10.0760 -48.3600 179° South 429 494 39,000 -1,320 Level FlightAware
08:16PM -9.7710 -48.3650 359° North 35,200 -1,680 Descending FlightAware
08:19PM -9.9790 -48.3499 176° South  Level Estimated
08:19PM -10.7640 -48.4630 176° South 439 505 35,000  Level FlightAware
08:19PM -10.8310 -48.4680 184° South 439 505 35,000  Level FlightAware
08:20PM -10.9190 -48.4740 184° South 438 504 35,000  Level FlightAware
08:21PM -11.0300 -48.4810 184° South 439 505 35,000  Level FlightAware
08:22PM -11.1230 -48.4870 184° South 438 504 35,000  Level FlightAware
08:22PM -11.1970 -48.4920 184° South 436 502 35,000  Level FlightAware
08:23PM -11.2740 -48.4980 184° South 434 499 35,000  Level FlightAware
08:24PM -11.3770 -48.5050 184° South 433 498 35,000  Level FlightAware
08:24PM -11.4480 -48.5090 183° South 431 496 35,000  Level FlightAware
08:25PM -11.5760 -48.5180 184° South 432 497 35,000  Level FlightAware
08:26PM -11.6670 -48.5240 184° South 433 498 35,000  Level FlightAware
08:27PM -11.7400 -48.5290 184° South 441 507 35,000  Level FlightAware
08:28PM -11.8820 -48.5380 184° South 440 506 35,000  Level FlightAware
08:29PM -11.9700 -48.5440 184° South 440 506 35,000  Level FlightAware
08:29PM -12.0570 -48.5510 184° South 441 507 35,000  Level FlightAware
08:30PM -12.1510 -48.5570 184° South 441 507 35,000  Level FlightAware
08:31PM -12.2460 -48.5630 184° South 441 507 35,000  Level FlightAware
08:32PM -12.3080 -48.5660 183° South 441 507 35,000  Level FlightAware
08:32PM -12.3970 -48.5710 183° South 441 507 35,000  Level FlightAware
08:33PM -12.5350 -48.5830 185° South 442 509 35,000  Level FlightAware
08:34PM -12.5970 -48.5860 183° South 442 509 35,000  Level FlightAware
08:35PM -12.6770 -48.5910 183° South 442 509 35,000  Level FlightAware
08:35PM -12.7430 -48.5940 183° South 442 509 35,000  Level FlightAware
08:36PM -12.8260 -48.5990 183° South 442 509 35,000  Level FlightAware
08:37PM -12.8900 -48.6020 183° South 442 509 35,000  Level FlightAware
08:37PM -12.9530 -48.6050 183° South 442 509 35,000  Level FlightAware
08:38PM -13.0150 -48.6090 184° South 442 509 35,000  Level FlightAware
08:39PM -13.0870 -48.6130 183° South 442 509 35,000  Level FlightAware
08:39PM -13.1680 -48.6170 183° South 442 509 35,000  Level FlightAware
08:40PM -13.2270 -48.6200 183° South 442 509 35,000  Level FlightAware
08:41PM -13.3120 -48.6250 183° South 442 509 35,000  Level FlightAware
08:41PM -13.3750 -48.6280 183° South 442 509 35,000  Level FlightAware
08:42PM -13.4550 -48.6320 183° South 442 509 35,000  Level FlightAware
08:45PM -13.6857 -48.5638 164° South  Level Estimated
08:46PM -13.7811 -48.5355 164° South  Level Estimated
08:47PM -13.8766 -48.5072 164° South  Level Estimated
08:48PM -13.9720 -48.4789 164° South  Level Estimated
08:48PM -14.4290 -48.7140 164° South 436 502 35,000  Level FlightAware
08:49PM -14.0675 -48.4506 164° South  Level Estimated
08:49PM -14.5000 -48.7180 183° South 435 501 35,000  Level FlightAware
08:50PM -14.5990 -48.7260 184° South 445 512 34,300 -1,440 Descending FlightAware
08:51PM -14.6960 -48.7330 184° South 434 499 33,000 -2,940 Descending FlightAware
08:51PM -14.7770 -48.7380 183° South 449 517 30,200 -4,440 Descending FlightAware
08:52PM -14.8600 -48.7440 184° South 469 540 27,100 -3,720 Descending FlightAware
08:53PM -14.9520 -48.7510 184° South 450 518 25,000 -2,940 Descending FlightAware
08:54PM -15.0680 -48.7580 183° South 428 493 22,200 -2,880 Descending FlightAware
08:55PM -15.1780 -48.7660 184° South 411 473 19,700 -2,640 Descending FlightAware
08:55PM -15.2490 -48.7710 184° South 399 459 18,100 -2,460 Descending FlightAware
08:56PM -15.3300 -48.7580 171° South 404 465 16,300 -2,340 Descending FlightAware
08:57PM -15.3840 -48.7060 137° Southeast 401 461 14,800 -1,800 Descending FlightAware
08:57PM -15.4330 -48.6370 126° Southeast 390 449 13,800 -1,200 Descending FlightAware
08:58PM -15.4750 -48.5770 126° Southeast 388 447 13,100 -900 Descending FlightAware
08:59PM -15.5170 -48.5180 126° Southeast 374 430 12,600 -1,500 Descending FlightAware
08:59PM -15.5620 -48.4540 126° Southeast 354 407 11,000 -1,680 Descending FlightAware
09:00PM -15.5990 -48.4020 126° Southeast 318 366 10,300 -660 Descending FlightAware
09:01PM -15.6310 -48.3560 126° Southeast 291 335 10,100 -600 Descending FlightAware
09:01PM -15.6550 -48.3230 127° Southeast 280 322 9,600 -1,440 Descending FlightAware
09:01PM -15.6670 -48.3060 126° Southeast 282 325 9,100 -1,980 Descending FlightAware
09:02PM -15.6890 -48.2740 126° Southeast 281 323 8,200 -1,860 Descending FlightAware
09:02PM -15.7080 -48.2470 126° Southeast 284 327 7,400 -1,800 Descending FlightAware
09:03PM -15.7320 -48.2140 127° Southeast 276 318 6,600 -1,560 Descending FlightAware
09:03PM -15.7510 -48.1870 126° Southeast 273 314 6,000 -1,440 Descending FlightAware
09:04PM -15.7730 -48.1560 126° Southeast 265 305 5,300 -840 Descending FlightAware
09:04PM -15.7960 -48.1310 134° Southeast 235 270 5,200  Descending FlightAware
09:05PM -15.8200 -48.1110 141° Southeast 198 228 5,300 -120 Climbing FlightAware
09:05PM -15.8360 -48.0980 142° Southeast 170 196 5,100 -480 Descending FlightAware
09:06PM -15.8510 -48.0850 140° Southeast 154 177 4,900 -240 Descending FlightAware
09:06PM -15.8670 -48.0720 142° Southeast 156 180 4,900  Level FlightAware
09:06PM -15.8730 -48.0620 122° Southeast 152 175 4,900  Level FlightAware
09:07PM -15.8730 -48.0440 90° East 150 173 4,900  Level FlightAware
09:07PM -15.8700 -48.0240 81° East 132 152 4,900 -240 Level FlightAware
09:08PM -15.8690 -48.0090 86° East 128 147 4,700 -600 Descending FlightAware
09:08PM -15.8680 -48.0000 83° East 129 148 4,500 -720 Descending FlightAware
09:08PM -15.8670 -47.9820 87° East 127 146 4,200 -720 Descending FlightAware
09:09PM -15.8660 -47.9720 84° East 127 146 4,000 -720 Descending FlightAware
09:09PM -15.8650 -47.9540 87° East 128 147 3,700 -540 Descending FlightAware
09:10PM -15.8650 -47.9420 90° East 131 151 3,500 -480 Descending FlightAware
09:10PM -15.8630 -47.9150 86° East 37 43 -5,280 Descending FlightAware
09:11PM -15.8640 -47.9150 180° South 27 31  Level FlightAware
09:12PM -15.8650 -47.9160 224° Southwest 14 16  Level FlightAware
09:13PM -15.8660 -47.9180 243° Southwest 11 13  Level FlightAware
09:13PM -15.8670 -47.9180 180° South 19 22  Level FlightAware
09:14PM -15.8680 -47.9190 224° Southwest 31 36  Level FlightAware
09:14PM -15.8690 -47.9190 180° South 24 28  Level FlightAware
09:17PM -15.8626 -47.9127 44° Northeast  Level Estimated
09:18PM -15.8626 -47.9127 128° Southeast  Level Estimated
09:19PM -15.8626 -47.9127 128° Southeast  Level Estimated
09:20PM -15.8626 -47.9127 128° Southeast  Level Estimated
09:21PM -15.8626 -47.9127 128° Southeast  Level Estimated
09:22PM -15.8626 -47.9127 128° Southeast  Level Estimated
09:23PM -15.8626 -47.9127 128° Southeast  Level Estimated
09:24PM -15.8626 -47.9127 128° Southeast  Level Estimated
09:25PM -15.8626 -47.9127 128° Southeast  Level Estimated
09:26PM -15.8626 -47.9127 128° Southeast  Level Estimated
09:27PM -15.8626 -47.9127 128° Southeast  Level Estimated
09:28PM -15.8626 -47.9127 128° Southeast  Level Estimated
09:29PM -15.8626 -47.9127 128° Southeast  Level Estimated
09:30PM -15.8626 -47.9127 128° Southeast  Level Estimated
09:31PM -15.8626 -47.9127 128° Southeast  Level Estimated
09:32PM -15.8626 -47.9127 128° Southeast  Level Estimated
09:33PM -15.8626 -47.9127 128° Southeast  Level Estimated
09:34PM -15.8626 -47.9127 128° Southeast  Level Estimated
09:35PM -15.8626 -47.9127 128° Southeast  Level Estimated
09:36PM -15.8626 -47.9127 128° Southeast  Level Estimated
09:37PM -15.8626 -47.9127 128° Southeast  Level Estimated
09:38PM -15.8626 -47.9127 128° Southeast  Level Estimated
09:39PM -15.8626 -47.9127 128° Southeast  Level Estimated
09:40PM -15.8626 -47.9127 128° Southeast  Level Estimated
09:41PM -15.8626 -47.9127 128° Southeast  Level Estimated